createdAt,value
2017-09-24T00:02:14.673Z,221.23
2017-09-24T00:04:44.229Z,310.07
2017-09-24T00:07:13.674Z,251.83
2017-09-24T00:09:44.676Z,422.87
2017-09-24T00:12:26.748Z,318.03
2017-09-24T00:14:58.201Z,383.10
2017-09-24T00:17:54.755Z,270.40
2017-09-24T00:20:24.952Z,243.77
2017-09-24T00:22:55.790Z,156.00
2017-09-24T00:25:25.860Z,192.40
2017-09-24T00:27:56.436Z,223.50
2017-09-24T00:30:27.488Z,522.00
2017-09-24T00:32:59.125Z,294.77
2017-09-24T00:35:30.284Z,163.70
2017-09-24T00:37:59.877Z,167.10
2017-09-24T00:40:32.549Z,174.07
2017-09-24T00:43:10.670Z,208.63
2017-09-24T00:45:46.312Z,223.50
2017-09-24T00:48:16.514Z,182.70
2017-09-24T00:50:46.645Z,208.50
2017-09-24T00:53:19.090Z,199.77
2017-09-24T00:55:48.934Z,259.13
2017-09-24T00:58:18.473Z,201.23
2017-09-24T01:00:49.375Z,219.60
2017-09-24T01:03:18.688Z,195.17
2017-09-24T01:05:49.398Z,187.30
2017-09-24T01:08:19.163Z,203.73
2017-09-24T01:10:50.067Z,268.77
2017-09-24T01:13:20.678Z,190.37
2017-09-24T01:15:51.176Z,200.73
2017-09-24T01:18:20.661Z,198.63
2017-09-24T01:20:53.116Z,292.43
2017-09-24T01:23:26.987Z,238.93
2017-09-24T01:25:56.321Z,237.53
2017-09-24T01:28:26.781Z,191.40
2017-09-24T01:30:56.411Z,193.33
2017-09-24T01:33:29.093Z,204.83
2017-09-24T01:35:58.956Z,192.87
2017-09-24T01:38:29.043Z,201.43
2017-09-24T01:40:58.540Z,191.60
2017-09-24T01:43:28.492Z,197.67
2017-09-24T01:45:58.111Z,207.97
2017-09-24T01:48:30.678Z,180.17
2017-09-24T01:51:28.594Z,160.37
2017-09-24T01:54:01.793Z,166.93
2017-09-24T01:56:34.800Z,167.43
2017-09-24T01:59:35.338Z,162.73
2017-09-24T02:02:06.415Z,166.27
2017-09-24T02:04:36.835Z,179.23
2017-09-24T02:07:07.499Z,232.90
2017-09-24T02:09:36.914Z,244.63
2017-09-24T02:12:06.523Z,212.97
2017-09-24T02:14:37.411Z,179.70
2017-09-24T02:17:11.031Z,186.97
2017-09-24T02:19:42.647Z,211.43
2017-09-24T02:22:12.788Z,174.60
2017-09-24T02:24:42.450Z,197.00
2017-09-24T02:27:12.881Z,157.67
2017-09-24T02:29:42.622Z,218.93
2017-09-24T02:32:12.227Z,174.53
2017-09-24T02:34:42.352Z,147.93
2017-09-24T02:37:11.788Z,159.70
2017-09-24T02:39:41.799Z,156.17
2017-09-24T02:42:12.237Z,180.10
2017-09-24T02:44:41.647Z,167.80
2017-09-24T02:48:13.818Z,171.97
2017-09-24T02:50:43.312Z,139.93
2017-09-24T02:53:13.442Z,145.20
2017-09-24T02:55:43.959Z,140.20
2017-09-24T02:58:14.197Z,142.70
2017-09-24T03:00:46.268Z,136.57
2017-09-24T03:03:16.932Z,165.53
2017-09-24T03:05:46.473Z,171.90
2017-09-24T03:08:16.834Z,172.73
2017-09-24T03:10:45.972Z,174.87
2017-09-24T03:13:15.875Z,180.60
2017-09-24T03:15:45.341Z,164.03
2017-09-24T03:18:14.944Z,143.77
2017-09-24T03:20:44.376Z,167.10
2017-09-24T03:23:13.692Z,144.30
2017-09-24T03:25:43.046Z,155.50
2017-09-24T03:28:13.630Z,137.07
2017-09-24T03:30:43.714Z,135.90
2017-09-24T03:33:13.104Z,156.87
2017-09-24T03:35:42.469Z,176.53
2017-09-24T03:38:11.783Z,149.63
2017-09-24T03:40:41.192Z,148.43
2017-09-24T03:43:11.402Z,146.70
2017-09-24T03:45:41.615Z,143.37
2017-09-24T03:48:12.294Z,135.13
2017-09-24T03:50:41.429Z,136.40
2017-09-24T03:53:11.390Z,136.10
2017-09-24T03:55:40.947Z,136.70
2017-09-24T03:58:10.159Z,132.73
2017-09-24T04:00:39.597Z,146.10
2017-09-24T04:03:09.722Z,159.23
2017-09-24T04:05:38.944Z,153.43
2017-09-24T04:08:08.507Z,147.93
2017-09-24T04:10:38.669Z,141.70
2017-09-24T04:13:08.807Z,133.87
2017-09-24T04:15:40.010Z,146.87
2017-09-24T04:18:09.542Z,152.57
2017-09-24T04:20:39.026Z,152.50
2017-09-24T04:23:13.033Z,165.07
2017-09-24T04:25:42.578Z,162.90
2017-09-24T04:28:12.006Z,127.50
2017-09-24T04:30:41.562Z,170.67
2017-09-24T04:33:10.925Z,145.47
2017-09-24T04:35:40.945Z,153.30
2017-09-24T04:38:11.302Z,188.30
2017-09-24T04:40:40.567Z,188.23
2017-09-24T04:43:10.916Z,174.67
2017-09-24T04:45:40.215Z,219.70
2017-09-24T04:48:09.466Z,240.67
2017-09-24T04:50:38.671Z,209.83
2017-09-24T04:53:07.905Z,182.40
2017-09-24T04:55:37.729Z,174.77
2017-09-24T04:58:07.221Z,193.80
2017-09-24T05:00:36.601Z,218.20
2017-09-24T05:03:05.883Z,183.90
2017-09-24T05:05:35.062Z,217.13
2017-09-24T05:08:04.524Z,217.57
2017-09-24T05:10:33.887Z,219.90
2017-09-24T05:13:03.209Z,209.03
2017-09-24T05:15:33.146Z,238.00
2017-09-24T05:18:02.382Z,294.97
2017-09-24T05:20:31.947Z,333.77
2017-09-24T05:23:01.934Z,268.63
2017-09-24T05:25:33.563Z,290.20
2017-09-24T05:28:02.827Z,322.53
2017-09-24T05:30:33.505Z,268.10
2017-09-24T05:33:03.118Z,286.70
2017-09-24T05:35:35.341Z,288.70
2017-09-24T05:38:04.487Z,275.60
2017-09-24T05:40:33.661Z,236.90
2017-09-24T05:43:02.874Z,274.47
2017-09-24T05:45:32.675Z,263.13
2017-09-24T05:48:01.813Z,273.23
2017-09-24T05:50:32.338Z,240.00
2017-09-24T05:53:01.491Z,247.20
2017-09-24T05:55:31.135Z,263.07
2017-09-24T05:58:00.393Z,211.20
2017-09-24T06:00:29.730Z,211.10
2017-09-24T06:02:59.049Z,254.47
2017-09-24T06:05:29.082Z,240.47
2017-09-24T06:07:59.190Z,283.90
2017-09-24T06:10:29.222Z,296.00
2017-09-24T06:12:58.419Z,228.07
2017-09-24T06:15:27.701Z,223.77
2017-09-24T06:17:58.048Z,250.07
2017-09-24T06:20:28.054Z,248.07
2017-09-24T06:22:58.023Z,273.63
2017-09-24T06:25:27.907Z,201.57
2017-09-24T06:27:57.138Z,205.10
2017-09-24T06:30:27.081Z,192.33
2017-09-24T06:32:56.326Z,196.23
2017-09-24T06:35:25.964Z,211.33
2017-09-24T06:37:56.268Z,200.73
2017-09-24T06:40:25.448Z,187.13
2017-09-24T06:42:54.769Z,185.00
2017-09-24T06:45:24.060Z,167.20
2017-09-24T06:47:53.632Z,174.40
2017-09-24T06:50:23.691Z,196.63
2017-09-24T06:52:53.787Z,194.83
2017-09-24T06:55:23.114Z,174.83
2017-09-24T06:57:53.049Z,155.67
2017-09-24T07:00:23.477Z,143.93
2017-09-24T07:02:52.693Z,129.03
2017-09-24T07:05:23.171Z,186.23
2017-09-24T07:07:52.595Z,148.90
2017-09-24T07:10:22.846Z,175.77
2017-09-24T07:12:52.215Z,154.53
2017-09-24T07:15:21.934Z,176.33
2017-09-24T07:17:52.031Z,156.30
2017-09-24T07:20:21.251Z,129.47
2017-09-24T07:22:50.564Z,144.73
2017-09-24T07:25:20.314Z,141.13
2017-09-24T07:27:51.869Z,132.27
2017-09-24T07:30:21.603Z,148.43
2017-09-24T07:32:50.953Z,149.10
2017-09-24T07:35:21.031Z,165.40
2017-09-24T07:37:50.347Z,139.80
2017-09-24T07:40:19.691Z,139.73
2017-09-24T07:42:49.689Z,129.30
2017-09-24T07:45:19.489Z,156.43
2017-09-24T07:47:48.841Z,141.70
2017-09-24T07:50:18.507Z,151.27
2017-09-24T07:52:47.930Z,128.73
2017-09-24T07:55:17.889Z,137.23
2017-09-24T07:57:47.156Z,188.10
2017-09-24T08:00:16.429Z,161.90
2017-09-24T08:02:47.194Z,143.83
2017-09-24T08:05:16.734Z,161.33
2017-09-24T08:07:46.308Z,155.47
2017-09-24T08:10:15.588Z,150.70
2017-09-24T08:12:45.137Z,154.07
2017-09-24T08:15:14.633Z,145.87
2017-09-24T08:17:44.733Z,141.17
2017-09-24T08:20:15.267Z,161.30
2017-09-24T08:22:44.665Z,150.77
2017-09-24T08:25:14.885Z,137.53
2017-09-24T08:27:45.287Z,121.80
2017-09-24T08:30:15.624Z,139.13
2017-09-24T08:32:45.979Z,126.67
2017-09-24T08:35:16.236Z,153.23
2017-09-24T08:37:45.579Z,129.00
2017-09-24T08:40:15.603Z,142.77
2017-09-24T08:42:46.966Z,124.27
2017-09-24T08:45:16.317Z,117.13
2017-09-24T08:47:45.798Z,134.93
2017-09-24T08:50:15.897Z,138.30
2017-09-24T08:52:45.407Z,132.57
2017-09-24T08:55:15.417Z,126.60
2017-09-24T08:57:44.909Z,203.53
2017-09-24T09:00:14.416Z,123.73
2017-09-24T09:02:44.147Z,130.50
2017-09-24T09:05:13.809Z,135.93
2017-09-24T09:07:44.316Z,163.07
2017-09-24T09:10:15.084Z,127.27
2017-09-24T09:12:44.662Z,142.80
2017-09-24T09:15:14.280Z,129.83
2017-09-24T09:17:43.786Z,127.87
2017-09-24T09:20:14.887Z,122.20
2017-09-24T09:22:47.728Z,121.83
2017-09-24T09:25:17.850Z,131.80
2017-09-24T09:27:51.081Z,119.13
2017-09-24T09:30:21.584Z,124.20
2017-09-24T09:33:00.048Z,123.10
2017-09-24T09:35:29.563Z,115.40
2017-09-24T09:37:59.063Z,112.70
2017-09-24T09:40:29.787Z,128.37
2017-09-24T09:42:59.500Z,115.63
2017-09-24T09:45:37.952Z,118.00
2017-09-24T09:48:08.043Z,115.33
2017-09-24T09:50:37.658Z,111.03
2017-09-24T09:53:08.530Z,105.40
2017-09-24T09:55:45.001Z,104.27
2017-09-24T09:58:16.101Z,97.77
2017-09-24T10:00:45.734Z,100.33
2017-09-24T10:03:15.553Z,85.43
2017-09-24T10:05:45.704Z,96.03
2017-09-24T10:08:25.442Z,87.07
2017-09-24T10:10:56.763Z,81.23
2017-09-24T10:13:27.147Z,84.80
2017-09-24T10:15:56.667Z,82.50
2017-09-24T10:18:26.348Z,76.57
2017-09-24T10:20:55.913Z,82.83
2017-09-24T10:23:26.023Z,80.27
2017-09-24T10:25:55.638Z,79.93
2017-09-24T10:28:34.506Z,72.93
2017-09-24T10:31:05.053Z,76.63
2017-09-24T10:33:34.504Z,80.73
2017-09-24T10:36:04.154Z,76.93
2017-09-24T10:38:33.783Z,75.80
2017-09-24T10:41:04.954Z,70.00
2017-09-24T10:43:35.353Z,67.07
2017-09-24T10:46:04.797Z,69.10
2017-09-24T10:48:36.264Z,68.47
2017-09-24T10:51:05.573Z,72.60
2017-09-24T10:53:34.851Z,75.70
2017-09-24T10:56:06.869Z,72.23
2017-09-24T10:58:36.945Z,64.13
2017-09-24T11:01:06.384Z,59.70
2017-09-24T11:03:35.876Z,78.17
2017-09-24T11:06:05.580Z,72.07
2017-09-24T11:08:35.752Z,79.23
2017-09-24T11:13:57.731Z,68.07
2017-09-24T11:16:30.047Z,67.77
2017-09-24T11:19:00.907Z,67.23
2017-09-24T11:21:31.054Z,71.30
2017-09-24T11:24:02.033Z,67.97
2017-09-24T11:26:31.583Z,73.40
2017-09-24T11:29:05.059Z,76.30
2017-09-24T11:31:34.561Z,66.90
2017-09-24T11:34:04.909Z,77.90
2017-09-24T11:36:34.486Z,64.70
2017-09-24T11:39:04.557Z,62.33
2017-09-24T11:41:34.417Z,65.60
2017-09-24T11:44:03.821Z,63.03
2017-09-24T11:46:36.736Z,59.70
2017-09-24T11:49:07.163Z,61.60
2017-09-24T11:51:38.817Z,64.60
2017-09-24T11:54:09.011Z,66.83
2017-09-24T11:56:38.429Z,69.13
2017-09-24T11:59:08.631Z,67.37
2017-09-24T12:01:48.602Z,71.87
2017-09-24T12:04:18.087Z,69.33
2017-09-24T12:06:47.454Z,61.17
2017-09-24T12:09:17.011Z,58.30
2017-09-24T12:11:48.001Z,52.10
2017-09-24T12:14:17.244Z,57.30
2017-09-24T12:16:47.205Z,54.40
2017-09-24T12:19:17.106Z,48.40
2017-09-24T12:21:46.338Z,40.57
2017-09-24T12:24:16.115Z,50.13
2017-09-24T12:26:48.078Z,48.23
2017-09-24T12:29:18.054Z,50.53
2017-09-24T12:31:48.968Z,46.53
2017-09-24T12:34:20.454Z,47.70
2017-09-24T12:36:53.852Z,41.37
2017-09-24T12:39:25.997Z,46.17
2017-09-24T12:41:55.597Z,46.27
2017-09-24T12:44:25.536Z,41.33
2017-09-24T12:46:56.840Z,37.13
2017-09-24T12:49:27.230Z,35.93
2017-09-24T12:51:57.328Z,37.07
2017-09-24T12:54:26.985Z,39.27
2017-09-24T12:56:56.695Z,40.87
2017-09-24T12:59:26.422Z,34.53
2017-09-24T13:01:55.954Z,43.00
2017-09-24T13:04:25.862Z,56.27
2017-09-24T13:06:56.005Z,57.43
2017-09-24T13:09:26.466Z,43.73
2017-09-24T13:11:56.032Z,49.07
2017-09-24T13:14:25.955Z,50.70
2017-09-24T13:16:55.901Z,41.90
2017-09-24T13:22:03.090Z,39.80
2017-09-24T13:24:33.216Z,47.40
2017-09-24T13:27:02.705Z,34.37
2017-09-24T13:29:32.419Z,47.13
2017-09-24T13:32:04.297Z,35.17
2017-09-24T13:34:34.211Z,40.20
2017-09-24T13:37:04.697Z,33.47
2017-09-24T13:39:34.756Z,34.27
2017-09-24T13:42:04.415Z,26.93
2017-09-24T13:44:35.564Z,38.70
2017-09-24T13:47:05.519Z,44.57
2017-09-24T13:49:36.571Z,37.83
2017-09-24T13:52:07.448Z,41.33
2017-09-24T13:54:37.528Z,52.80
2017-09-24T13:57:08.835Z,40.00
2017-09-24T13:59:39.225Z,41.50
2017-09-24T14:02:09.831Z,36.17
2017-09-24T14:04:39.647Z,70.23
2017-09-24T14:07:11.042Z,38.50
2017-09-24T14:09:41.907Z,48.30
2017-09-24T14:12:11.533Z,38.97
2017-09-24T14:14:41.675Z,36.90
2017-09-24T14:17:13.851Z,40.80
2017-09-24T14:19:44.568Z,42.80
2017-09-24T14:22:14.281Z,55.10
2017-09-24T14:24:44.494Z,46.60
2017-09-24T14:27:15.623Z,36.07
2017-09-24T14:29:46.265Z,33.63
2017-09-24T14:32:16.682Z,52.83
2017-09-24T14:34:47.298Z,45.30
2017-09-24T14:37:17.584Z,44.03
2017-09-24T14:39:47.430Z,43.63
2017-09-24T14:42:17.373Z,40.87
2017-09-24T14:44:48.271Z,41.13
2017-09-24T14:47:17.756Z,30.30
2017-09-24T14:49:48.387Z,64.03
2017-09-24T14:52:18.115Z,38.70
2017-09-24T14:54:47.963Z,46.40
2017-09-24T14:57:18.259Z,53.33
2017-09-24T14:59:49.844Z,37.53
2017-09-24T15:02:20.077Z,43.40
2017-09-24T15:04:50.971Z,43.37
2017-09-24T15:07:55.772Z,40.03
2017-09-24T15:10:26.323Z,41.30
2017-09-24T15:12:56.180Z,45.83
2017-09-24T15:15:27.564Z,50.17
2017-09-24T15:18:07.467Z,43.13
2017-09-24T15:20:38.909Z,37.40
2017-09-24T15:23:10.243Z,57.20
2017-09-24T15:25:41.359Z,39.83
2017-09-24T15:28:14.020Z,43.67
2017-09-24T15:30:46.487Z,38.40
2017-09-24T15:33:18.148Z,37.50
2017-09-24T15:35:51.658Z,53.50
2017-09-24T15:38:22.399Z,43.03
2017-09-24T15:40:58.015Z,42.53
2017-09-24T15:43:37.823Z,52.87
2017-09-24T15:46:25.768Z,47.70
2017-09-24T15:48:56.579Z,56.80
2017-09-24T15:51:32.255Z,44.27
2017-09-24T15:54:10.393Z,47.37
2017-09-24T15:57:02.696Z,48.20
2017-09-24T15:59:39.585Z,53.00
2017-09-24T16:02:24.789Z,54.83
2017-09-24T16:04:55.959Z,46.30
2017-09-24T16:07:28.404Z,49.97
2017-09-24T16:10:03.783Z,60.27
2017-09-24T16:12:34.829Z,49.50
2017-09-24T16:15:04.767Z,48.00
2017-09-24T16:17:34.568Z,55.17
2017-09-24T16:20:04.306Z,56.43
2017-09-24T16:22:35.338Z,53.43
2017-09-24T16:25:10.562Z,53.20
2017-09-24T16:27:42.483Z,58.40
2017-09-24T16:33:15.362Z,53.53
2017-09-24T16:35:45.903Z,55.57
2017-09-24T16:38:18.364Z,51.40
2017-09-24T16:40:49.185Z,61.33
2017-09-24T16:43:20.580Z,52.03
2017-09-24T16:45:51.141Z,55.47
2017-09-24T16:48:28.525Z,66.23
2017-09-24T16:51:05.170Z,60.60
2017-09-24T16:53:35.887Z,55.47
2017-09-24T16:56:05.658Z,52.20
2017-09-24T16:58:35.874Z,55.57
2017-09-24T17:01:05.937Z,55.00
2017-09-24T17:03:35.942Z,65.20
2017-09-24T17:06:09.519Z,84.27
2017-09-24T17:08:39.328Z,61.87
2017-09-24T17:11:28.437Z,80.03
2017-09-24T17:14:02.158Z,76.50
2017-09-24T17:16:32.155Z,67.37
2017-09-24T17:19:03.978Z,69.40
2017-09-24T17:21:33.948Z,71.97
2017-09-24T17:24:03.985Z,66.53
2017-09-24T17:26:34.334Z,66.53
2017-09-24T17:29:03.848Z,60.07
2017-09-24T17:31:33.467Z,57.63
2017-09-24T17:34:03.957Z,72.53
2017-09-24T17:36:37.089Z,70.93
2017-09-24T17:39:06.839Z,70.43
2017-09-24T17:41:37.382Z,66.97
2017-09-24T17:44:09.606Z,68.73
2017-09-24T17:46:40.657Z,64.70
2017-09-24T17:49:25.221Z,69.70
2017-09-24T17:51:54.655Z,67.73
2017-09-24T17:54:24.283Z,67.27
2017-09-24T17:56:53.867Z,53.30
2017-09-24T17:59:26.153Z,85.30
2017-09-24T18:01:56.622Z,59.30
2017-09-24T18:04:26.870Z,69.43
2017-09-24T18:06:57.234Z,57.23
2017-09-24T18:09:29.986Z,65.30
2017-09-24T18:12:00.588Z,56.03
2017-09-24T18:14:32.919Z,83.07
2017-09-24T18:17:03.654Z,55.33
2017-09-24T18:19:33.419Z,71.53
2017-09-24T18:22:04.791Z,102.60
2017-09-24T18:24:41.701Z,108.80
2017-09-24T18:27:11.670Z,60.13
2017-09-24T18:29:47.520Z,53.37
2017-09-24T18:32:23.326Z,76.70
2017-09-24T18:34:56.590Z,59.03
2017-09-24T18:37:36.480Z,71.47
2017-09-24T18:40:12.006Z,67.43
2017-09-24T18:42:45.048Z,59.67
2017-09-24T18:45:15.432Z,58.10
2017-09-24T18:47:45.531Z,76.43
2017-09-24T18:50:15.552Z,55.57
2017-09-24T18:52:47.723Z,48.57
2017-09-24T18:55:19.024Z,44.23
2017-09-24T18:57:49.949Z,46.80
2017-09-24T19:00:21.328Z,49.70
2017-09-24T19:02:52.597Z,46.07
2017-09-24T19:05:22.268Z,60.93
2017-09-24T19:07:52.190Z,49.10
2017-09-24T19:10:23.995Z,60.40
2017-09-24T19:12:57.310Z,60.23
2017-09-24T19:15:27.426Z,51.00
2017-09-24T19:17:59.014Z,52.60
2017-09-24T19:20:32.034Z,51.30
2017-09-24T19:23:03.841Z,56.07
2017-09-24T19:25:36.741Z,46.70
2017-09-24T19:28:12.874Z,48.27
2017-09-24T19:30:46.683Z,111.17
2017-09-24T19:36:23.926Z,61.17
2017-09-24T19:39:07.812Z,56.57
2017-09-24T19:41:40.682Z,65.53
2017-09-24T19:44:10.826Z,52.87
2017-09-24T19:46:45.874Z,59.13
2017-09-24T19:49:17.944Z,79.43
2017-09-24T19:51:49.695Z,82.90
2017-09-24T19:54:21.329Z,62.27
2017-09-24T19:56:54.605Z,59.90
2017-09-24T19:59:26.068Z,159.93
2017-09-24T20:01:59.961Z,56.03
2017-09-24T20:04:47.518Z,56.03
2017-09-24T20:07:26.286Z,55.30
2017-09-24T20:10:09.841Z,46.87
2017-09-24T20:12:41.818Z,49.07
2017-09-24T20:15:13.471Z,62.43
2017-09-24T20:17:47.783Z,71.60
2017-09-24T20:20:25.299Z,51.23
2017-09-24T20:23:00.151Z,55.57
2017-09-24T20:28:32.890Z,87.77
2017-09-24T20:31:11.376Z,51.57
2017-09-24T20:33:50.451Z,48.53
2017-09-24T20:36:36.663Z,44.83
2017-09-24T20:39:08.109Z,56.97
2017-09-24T20:41:38.573Z,50.70
2017-09-24T20:44:09.710Z,46.07
2017-09-24T20:46:40.718Z,48.70
2017-09-24T20:49:10.469Z,58.90
2017-09-24T20:51:58.483Z,45.27
2017-09-24T20:54:36.811Z,51.20
2017-09-24T20:57:41.493Z,61.20
2017-09-24T21:00:15.310Z,61.57
2017-09-24T21:02:56.570Z,53.53
2017-09-24T21:05:32.263Z,47.73
2017-09-24T21:08:02.444Z,65.50
2017-09-24T21:10:33.090Z,52.37
2017-09-24T21:13:10.881Z,49.57
2017-09-24T21:18:30.150Z,48.07
2017-09-24T21:21:07.024Z,41.47
2017-09-24T21:23:37.718Z,65.33
2017-09-24T21:26:08.045Z,42.40
2017-09-24T21:28:37.398Z,42.50
2017-09-24T21:31:07.157Z,44.23
2017-09-24T21:33:36.415Z,48.90
2017-09-24T21:36:05.716Z,40.23
2017-09-24T21:38:36.118Z,47.87
2017-09-24T21:41:06.293Z,48.87
2017-09-24T21:43:36.628Z,40.23
2017-09-24T21:46:06.978Z,50.37
2017-09-24T21:48:37.642Z,45.17
2017-09-24T21:54:16.718Z,39.47
2017-09-24T21:56:51.272Z,41.20
2017-09-24T21:59:23.428Z,47.70
2017-09-24T22:02:23.399Z,40.30
2017-09-24T22:04:52.892Z,46.97
2017-09-24T22:07:23.101Z,59.30
2017-09-24T22:09:54.052Z,40.47
2017-09-24T22:12:24.141Z,40.43
2017-09-24T22:14:55.410Z,37.73
2017-09-24T22:17:33.322Z,44.60
2017-09-24T22:20:06.519Z,51.43
2017-09-24T22:22:41.866Z,37.90
2017-09-24T22:25:13.685Z,113.87
2017-09-24T22:27:44.242Z,49.90
2017-09-24T22:30:15.163Z,43.77
2017-09-24T22:32:46.204Z,49.20
2017-09-24T22:35:16.515Z,48.03
2017-09-24T22:37:47.119Z,47.27
2017-09-24T22:40:16.788Z,43.30
2017-09-24T22:42:48.207Z,49.33
2017-09-24T22:45:18.673Z,42.50
2017-09-24T22:47:48.091Z,54.53
2017-09-24T22:50:17.534Z,63.80
2017-09-24T22:52:47.043Z,55.77
2017-09-24T22:55:18.951Z,49.60
2017-09-24T22:57:48.558Z,54.73
2017-09-24T23:00:19.293Z,43.93
2017-09-24T23:02:49.451Z,45.00
2017-09-24T23:05:19.521Z,46.40
2017-09-24T23:07:48.983Z,41.80
2017-09-24T23:10:19.395Z,45.57
2017-09-24T23:12:49.178Z,43.03
2017-09-24T23:15:19.380Z,46.37
2017-09-24T23:17:48.776Z,48.20
2017-09-24T23:20:17.991Z,50.07
2017-09-24T23:22:48.132Z,39.60
2017-09-24T23:25:18.370Z,42.37
2017-09-24T23:27:47.569Z,44.90
2017-09-24T23:30:16.824Z,54.73
2017-09-24T23:32:46.872Z,110.83
2017-09-24T23:35:16.441Z,43.83
2017-09-24T23:37:46.410Z,51.37
2017-09-24T23:42:51.760Z,47.50
2017-09-24T23:45:21.017Z,61.80
2017-09-24T23:47:50.366Z,42.50
2017-09-24T23:50:19.563Z,51.53
2017-09-24T23:52:48.861Z,51.77
2017-09-24T23:55:18.138Z,44.37
2017-09-24T23:57:48.216Z,49.73
